Time;durP1;ratioP1;P1;durP2;ratioP2;P2;SDS_P1;SDS_P2;PMS_P1;PMS_P2;Temp;Humidity;BMP_temperature;BMP_pressure;BME280_temperature;BME280_humidity;BME280_pressure;Samples;Min_cycle;Max_cycle;Signal;HPM_P1;HPM_P2
2023/03/25 00:02:04;;;;;;;19.08;3.88;;;9.40;99.90;;;;;;5075899;28;20040;-46
2023/03/25 00:04:30;;;;;;;24.60;4.40;;;9.30;99.90;;;;;;5060795;28;20131;-41
2023/03/25 00:06:56;;;;;;;23.13;4.00;;;9.30;99.90;;;;;;5065402;28;20055;-46
2023/03/25 00:09:22;;;;;;;37.35;6.25;;;9.30;99.90;;;;;;5076409;28;20044;-47
2023/03/25 00:11:51;;;;;;;21.65;4.40;;;9.30;99.90;;;;;;5075329;28;20470;-41
2023/03/25 00:14:16;;;;;;;24.42;4.95;;;9.30;99.90;;;;;;5075753;28;20131;-49
2023/03/25 00:16:47;;;;;;;19.58;4.35;;;9.30;99.90;;;;;;5076289;28;20047;-52
2023/03/25 00:19:14;;;;;;;24.55;5.13;;;9.30;99.90;;;;;;5063621;28;20048;-46
2023/03/25 00:21:43;;;;;;;17.50;3.97;;;9.20;99.90;;;;;;5075195;28;20036;-49
2023/03/25 00:24:11;;;;;;;22.83;4.57;;;9.20;99.90;;;;;;5075697;28;20048;-52
2023/03/25 00:26:41;;;;;;;26.92;5.50;;;9.10;99.90;;;;;;5077053;28;20043;-50
2023/03/25 00:29:08;;;;;;;24.25;4.93;;;9.10;99.90;;;;;;5063250;28;20047;-48
2023/03/25 00:31:34;;;;;;;19.10;4.93;;;9.00;99.90;;;;;;5074748;28;20147;-39
2023/03/25 00:34:00;;;;;;;27.58;5.03;;;9.00;99.90;;;;;;5076291;28;20584;-48
2023/03/25 00:36:25;;;;;;;25.90;5.07;;;9.00;99.90;;;;;;5076365;28;20048;-50
2023/03/25 00:38:51;;;;;;;25.20;4.90;;;9.10;99.90;;;;;;5069685;28;20442;-47
2023/03/25 00:41:26;;;;;;;28.25;5.85;;;9.10;99.90;;;;;;5047902;28;20500;-49
2023/03/25 00:43:55;;;;;;;29.80;4.82;;;9.10;99.90;;;;;;5075218;28;20032;-53
2023/03/25 00:46:22;;;;;;;23.83;4.72;;;9.00;99.90;;;;;;5075781;28;20040;-51
2023/03/25 00:48:49;;;;;;;23.58;5.50;;;9.00;99.90;;;;;;5074945;28;20068;-46
2023/03/25 00:51:18;;;;;;;21.35;5.57;;;9.00;99.90;;;;;;5076050;28;20112;-38
2023/03/25 00:53:44;;;;;;;25.10;4.93;;;9.00;99.90;;;;;;5056748;28;20049;-48
2023/03/25 00:56:11;;;;;;;26.55;4.53;;;9.00;99.90;;;;;;5068766;28;20541;-48
2023/03/25 00:58:37;;;;;;;32.47;6.90;;;9.00;99.90;;;;;;5075720;28;20093;-40
2023/03/25 01:01:22;;;;;;;30.58;7.05;;;9.00;99.90;;;;;;5062596;28;20045;-44
2023/03/25 01:03:48;;;;;;;29.67;5.22;;;9.00;99.90;;;;;;5055707;28;20042;-45
2023/03/25 01:06:15;;;;;;;33.00;5.97;;;8.90;99.90;;;;;;5057137;28;20098;-42
2023/03/25 01:08:42;;;;;;;33.05;6.55;;;9.00;99.90;;;;;;5056250;28;20430;-47
2023/03/25 01:11:27;;;;;;;33.25;7.18;;;8.90;99.90;;;;;;5060177;28;20507;-41
2023/03/25 01:13:58;;;;;;;26.42;4.97;;;8.90;99.90;;;;;;5064123;28;20056;-46
2023/03/25 01:16:24;;;;;;;25.17;4.97;;;8.90;99.90;;;;;;5061966;28;20055;-39
2023/03/25 01:18:50;;;;;;;30.48;5.63;;;9.00;99.90;;;;;;5064266;28;20045;-45
2023/03/25 01:21:16;;;;;;;28.52;6.57;;;9.00;99.90;;;;;;5072989;28;20390;-50
2023/03/25 01:23:42;;;;;;;27.20;5.30;;;9.00;99.90;;;;;;5062993;28;20501;-42
2023/03/25 01:26:08;;;;;;;30.15;5.82;;;9.00;99.90;;;;;;5074633;28;20059;-51
2023/03/25 01:28:33;;;;;;;28.27;5.10;;;9.00;99.90;;;;;;5061867;28;20118;-47
2023/03/25 01:31:05;;;;;;;28.85;5.18;;;9.00;99.90;;;;;;5057092;28;20439;-38
2023/03/25 01:33:31;;;;;;;32.13;5.95;;;9.00;99.90;;;;;;5072345;28;20044;-43
2023/03/25 01:35:57;;;;;;;27.55;4.90;;;9.00;99.90;;;;;;5071766;28;20093;-43
2023/03/25 01:38:23;;;;;;;27.73;5.93;;;9.00;99.90;;;;;;5072769;28;20442;-42
2023/03/25 01:40:53;;;;;;;33.35;6.20;;;9.00;99.90;;;;;;5066733;28;20378;-40
2023/03/25 01:43:20;;;;;;;34.80;7.07;;;9.00;99.90;;;;;;5072126;28;20040;-46
2023/03/25 01:45:46;;;;;;;30.02;6.03;;;9.00;99.90;;;;;;5073375;28;20052;-45
2023/03/25 01:48:17;;;;;;;33.30;6.63;;;9.00;99.90;;;;;;5074011;28;20047;-47
2023/03/25 01:50:51;;;;;;;28.30;5.60;;;9.00;99.90;;;;;;5073699;28;20127;-51
2023/03/25 01:53:17;;;;;;;37.78;6.65;;;9.00;99.90;;;;;;5069107;28;20056;-43
2023/03/25 01:55:44;;;;;;;27.80;5.65;;;9.00;99.90;;;;;;5063220;28;20058;-50
2023/03/25 01:58:14;;;;;;;30.83;5.72;;;9.00;99.90;;;;;;5073732;28;20047;-49
2023/03/25 02:00:42;;;;;;;29.45;6.53;;;9.00;99.90;;;;;;5062506;28;20364;-49
2023/03/25 02:03:10;;;;;;;34.78;7.68;;;9.00;99.90;;;;;;5062913;28;20109;-46
2023/03/25 02:05:47;;;;;;;34.90;7.78;;;9.00;99.90;;;;;;5072570;28;20086;-42
2023/03/25 02:08:14;;;;;;;34.47;6.18;;;9.00;99.90;;;;;;5074765;28;20498;-47
2023/03/25 02:10:44;;;;;;;31.27;6.18;;;9.00;99.90;;;;;;5066003;28;20379;-42
2023/03/25 02:13:10;;;;;;;30.63;6.82;;;9.00;99.90;;;;;;5071936;28;20036;-42
2023/03/25 02:16:10;;;;;;;29.65;5.65;;;9.00;99.90;;;;;;5078379;28;20064;-42
2023/03/25 02:18:55;;;;;;;36.28;6.75;;;9.00;99.90;;;;;;5036498;28;20072;-46
2023/03/25 02:21:49;;;;;;;28.70;6.22;;;9.00;99.90;;;;;;5035697;28;20045;-42
2023/03/25 02:24:42;;;;;;;26.80;6.93;;;9.00;99.90;;;;;;4956520;28;20071;-42
2023/03/25 02:27:45;;;;;;;26.85;5.55;;;9.00;99.90;;;;;;4951585;28;20537;-45
2023/03/25 02:30:23;;;;;;;22.45;4.63;;;9.00;99.90;;;;;;4956602;28;20055;-47
2023/03/25 02:33:15;;;;;;;30.77;5.38;;;9.00;99.90;;;;;;4956433;28;20051;-45
2023/03/25 02:35:51;;;;;;;25.25;5.10;;;9.00;99.90;;;;;;4957057;28;20102;-46
2023/03/25 02:38:23;;;;;;;31.02;7.15;;;9.00;99.90;;;;;;4956801;28;20046;-38
2023/03/25 02:41:07;;;;;;;29.90;6.35;;;9.00;99.90;;;;;;4956724;28;20203;-43
2023/03/25 02:43:53;;;;;;;24.90;5.40;;;9.00;99.90;;;;;;4956377;28;20553;-44
2023/03/25 02:46:20;;;;;;;29.52;5.55;;;9.00;99.90;;;;;;4957215;28;20135;-50
2023/03/25 02:48:58;;;;;;;21.70;5.97;;;9.00;99.90;;;;;;4956663;28;20138;-45
2023/03/25 02:51:31;;;;;;;27.40;6.07;;;9.00;99.90;;;;;;4940957;28;20058;-49
2023/03/25 02:54:05;;;;;;;30.83;6.13;;;9.00;99.90;;;;;;4956681;28;20102;-42
2023/03/25 02:56:31;;;;;;;25.63;6.35;;;9.00;99.90;;;;;;5005473;28;20088;-49
2023/03/25 02:58:59;;;;;;;26.95;5.03;;;9.00;99.90;;;;;;5014806;28;20053;-38
2023/03/25 03:01:25;;;;;;;34.65;6.90;;;9.00;99.90;;;;;;5032939;28;20072;-49
2023/03/25 03:03:55;;;;;;;25.83;5.97;;;9.00;99.90;;;;;;5070428;28;20052;-50
2023/03/25 03:06:22;;;;;;;23.52;5.22;;;9.00;99.90;;;;;;5075554;28;20055;-49
2023/03/25 03:08:48;;;;;;;27.40;6.03;;;9.10;99.90;;;;;;5077497;28;20048;-44
2023/03/25 03:11:25;;;;;;;28.15;6.30;;;9.00;99.90;;;;;;5067694;28;20044;-48
2023/03/25 03:14:19;;;;;;;29.23;6.40;;;9.00;99.90;;;;;;5069082;28;20083;-48
2023/03/25 03:16:48;;;;;;;29.95;6.72;;;9.00;99.90;;;;;;5070234;28;20063;-49
2023/03/25 03:19:33;;;;;;;29.13;5.47;;;9.00;99.90;;;;;;5071873;28;20083;-44
2023/03/25 03:22:14;;;;;;;26.77;5.22;;;9.00;99.90;;;;;;5068731;28;20051;-40
2023/03/25 03:24:48;;;;;;;36.53;6.75;;;9.00;99.90;;;;;;5078695;28;20044;-49
2023/03/25 03:27:47;;;;;;;29.10;6.10;;;9.00;99.90;;;;;;5062422;28;20442;-46
2023/03/25 03:30:25;;;;;;;27.50;6.45;;;9.00;99.90;;;;;;5065777;28;20074;-46
2023/03/25 03:33:29;;;;;;;22.67;5.47;;;9.00;99.90;;;;;;5076606;28;20562;-51
2023/03/25 03:36:00;;;;;;;28.35;7.18;;;9.00;99.90;;;;;;5055494;28;20564;-42
2023/03/25 03:38:34;;;;;;;29.83;6.65;;;9.00;99.90;;;;;;5072263;28;20036;-43
2023/03/25 03:41:05;;;;;;;30.98;5.75;;;9.00;99.90;;;;;;5075673;28;20075;-45
2023/03/25 03:43:44;;;;;;;34.92;7.88;;;9.00;99.90;;;;;;5062634;28;20499;-48
2023/03/25 03:46:28;;;;;;;27.40;5.03;;;9.00;99.90;;;;;;5077662;28;20043;-50
2023/03/25 03:48:57;;;;;;;30.60;6.38;;;9.00;99.90;;;;;;5076928;28;20048;-45
2023/03/25 03:51:30;;;;;;;28.80;6.30;;;9.00;99.90;;;;;;5075437;28;20134;-50
2023/03/25 03:54:00;;;;;;;31.48;5.80;;;9.00;99.90;;;;;;5068678;28;20052;-51
2023/03/25 03:56:46;;;;;;;27.33;6.30;;;9.00;99.90;;;;;;5068872;28;20050;-49
2023/03/25 03:59:26;;;;;;;28.15;6.30;;;9.00;99.90;;;;;;5065822;28;20080;-49
2023/03/25 04:01:58;;;;;;;28.80;5.88;;;9.00;99.90;;;;;;5057843;28;20542;-48
2023/03/25 04:04:25;;;;;;;24.83;5.35;;;9.00;99.90;;;;;;5075353;28;20495;-42
2023/03/25 04:07:17;;;;;;;28.17;6.60;;;9.00;99.90;;;;;;5076667;28;20079;-47
2023/03/25 04:09:53;;;;;;;31.33;6.13;;;9.00;99.90;;;;;;5075786;28;20051;-46
2023/03/25 04:12:30;;;;;;;32.85;6.07;;;9.00;99.90;;;;;;5075906;28;20051;-41
2023/03/25 04:14:59;;;;;;;26.58;5.50;;;9.00;99.90;;;;;;5076028;28;20060;-49
2023/03/25 04:17:25;;;;;;;28.08;6.45;;;9.00;99.90;;;;;;5061215;28;20546;-41
2023/03/25 04:19:52;;;;;;;27.10;6.40;;;9.00;99.90;;;;;;5063743;28;20051;-47
2023/03/25 04:22:19;;;;;;;31.73;5.85;;;9.00;99.90;;;;;;5074140;28;20047;-49
2023/03/25 04:24:48;;;;;;;30.48;6.00;;;9.00;99.90;;;;;;5056737;28;20044;-45
2023/03/25 04:27:15;;;;;;;35.60;6.63;;;9.00;99.90;;;;;;5058805;28;20053;-46
2023/03/25 04:29:42;;;;;;;31.52;6.30;;;9.00;99.90;;;;;;5066230;28;20493;-53
2023/03/25 04:32:10;;;;;;;32.50;6.15;;;9.00;99.90;;;;;;5062556;28;20565;-45
2023/03/25 04:34:36;;;;;;;26.48;6.68;;;9.00;99.90;;;;;;5074683;28;20059;-47
2023/03/25 04:37:03;;;;;;;25.73;5.57;;;9.00;99.90;;;;;;5059326;28;20120;-45
2023/03/25 04:39:31;;;;;;;35.15;6.40;;;9.00;99.90;;;;;;5055740;28;20102;-43
2023/03/25 04:42:02;;;;;;;30.63;7.35;;;8.90;99.90;;;;;;5072722;28;20594;-48
2023/03/25 04:44:32;;;;;;;28.65;6.35;;;8.90;99.90;;;;;;5075522;28;20047;-41
2023/03/25 04:46:59;;;;;;;32.30;6.97;;;8.90;99.90;;;;;;5076100;28;20044;-39
2023/03/25 04:49:25;;;;;;;31.15;7.07;;;8.90;99.90;;;;;;5076092;28;20091;-40
2023/03/25 04:51:52;;;;;;;33.10;6.38;;;8.90;99.90;;;;;;5071301;28;20040;-52
2023/03/25 04:54:22;;;;;;;28.17;6.72;;;8.90;99.90;;;;;;5066759;28;20055;-45
2023/03/25 04:56:49;;;;;;;29.02;6.43;;;8.90;99.90;;;;;;5080967;28;20487;-42
2023/03/25 04:59:16;;;;;;;35.03;7.15;;;8.90;99.90;;;;;;5068656;28;20051;-45
2023/03/25 05:01:44;;;;;;;33.50;6.97;;;8.80;99.90;;;;;;5068427;28;20040;-48
2023/03/25 05:04:12;;;;;;;31.30;6.68;;;8.80;99.90;;;;;;5069276;28;20470;-44
2023/03/25 05:06:44;;;;;;;32.38;7.28;;;8.90;99.90;;;;;;5074476;28;20040;-47
2023/03/25 05:09:15;;;;;;;34.00;6.68;;;8.80;99.90;;;;;;5074154;28;20062;-49
2023/03/25 05:11:41;;;;;;;39.20;7.63;;;8.80;99.90;;;;;;5062014;28;20048;-47
2023/03/25 05:14:11;;;;;;;31.88;7.40;;;8.70;99.90;;;;;;5077128;28;20415;-47
2023/03/25 05:16:38;;;;;;;29.67;5.60;;;8.70;99.90;;;;;;5068795;28;20134;-42
2023/03/25 05:19:05;;;;;;;35.72;6.45;;;8.70;99.90;;;;;;5079952;28;20302;-44
2023/03/25 05:21:31;;;;;;;32.10;6.38;;;8.60;99.90;;;;;;5070270;28;20145;-46
2023/03/25 05:24:00;;;;;;;23.42;5.80;;;8.60;99.90;;;;;;5061660;28;20049;-42
2023/03/25 05:26:33;;;;;;;35.33;6.57;;;8.50;99.90;;;;;;5070288;28;20048;-50
2023/03/25 05:29:25;;;;;;;33.63;7.63;;;8.50;99.90;;;;;;5060202;28;20059;-43
2023/03/25 05:31:50;;;;;;;31.08;5.22;;;8.60;99.90;;;;;;5073201;28;20051;-45
2023/03/25 05:34:16;;;;;;;33.05;7.50;;;8.60;99.90;;;;;;5059076;28;20355;-44
2023/03/25 05:36:42;;;;;;;38.10;6.38;;;8.70;99.90;;;;;;5060381;28;20119;-42
2023/03/25 05:39:09;;;;;;;34.80;6.68;;;8.70;99.90;;;;;;5079645;28;20087;-45
2023/03/25 05:41:37;;;;;;;40.45;8.00;;;8.70;99.90;;;;;;5079454;28;20036;-40
2023/03/25 05:44:08;;;;;;;30.40;5.70;;;8.80;99.90;;;;;;5059015;28;20045;-49
2023/03/25 05:46:34;;;;;;;47.33;8.48;;;8.80;99.90;;;;;;5073775;28;20052;-40
2023/03/25 05:49:00;;;;;;;31.33;6.45;;;8.80;99.90;;;;;;5080080;28;20224;-44
2023/03/25 05:51:28;;;;;;;36.55;6.35;;;8.80;99.90;;;;;;5079510;28;20098;-47
2023/03/25 05:53:54;;;;;;;32.35;7.30;;;8.80;99.90;;;;;;5079273;28;20040;-42
2023/03/25 05:56:21;;;;;;;31.83;6.35;;;8.80;99.90;;;;;;5090363;28;20523;-45
2023/03/25 05:58:49;;;;;;;29.02;6.40;;;8.80;99.90;;;;;;5070696;28;20047;-44
2023/03/25 06:01:18;;;;;;;34.80;6.80;;;8.80;99.90;;;;;;5058980;28;20504;-43
2023/03/25 06:03:45;;;;;;;29.20;6.22;;;8.80;99.90;;;;;;5078608;28;20036;-45
2023/03/25 06:06:12;;;;;;;24.85;5.35;;;8.80;99.90;;;;;;5065903;28;20056;-48
2023/03/25 06:08:41;;;;;;;24.85;6.15;;;8.80;99.90;;;;;;5069103;28;20485;-47
2023/03/25 06:11:08;;;;;;;28.17;6.35;;;8.80;99.90;;;;;;5062041;28;20036;-42
2023/03/25 06:13:38;;;;;;;25.85;6.20;;;8.80;99.90;;;;;;5078804;28;20040;-43
2023/03/25 06:16:04;;;;;;;25.00;5.63;;;8.80;99.90;;;;;;5079305;28;20048;-52
2023/03/25 06:18:31;;;;;;;25.95;5.55;;;8.80;99.90;;;;;;5077354;28;20055;-48
2023/03/25 06:20:58;;;;;;;25.25;5.53;;;8.80;99.90;;;;;;5078542;28;20075;-46
2023/03/25 06:23:25;;;;;;;25.98;5.65;;;8.80;99.90;;;;;;5078410;28;20521;-49
2023/03/25 06:25:51;;;;;;;22.90;6.43;;;8.80;99.90;;;;;;5078008;28;20859;-43
2023/03/25 06:28:17;;;;;;;26.02;5.20;;;8.80;99.90;;;;;;5079104;28;20543;-39
2023/03/25 06:30:47;;;;;;;22.67;4.88;;;8.90;99.90;;;;;;5078847;28;20093;-52
2023/03/25 06:33:14;;;;;;;26.95;5.82;;;8.90;99.90;;;;;;5078303;28;20035;-46
2023/03/25 06:35:41;;;;;;;27.65;4.97;;;8.90;99.90;;;;;;5078311;28;20040;-50
2023/03/25 06:38:08;;;;;;;24.08;6.22;;;9.00;99.90;;;;;;5065968;28;20056;-45
2023/03/25 06:40:36;;;;;;;24.60;6.07;;;9.00;99.90;;;;;;5076201;28;20047;-43
2023/03/25 06:43:03;;;;;;;28.00;6.70;;;9.00;99.90;;;;;;5078270;28;20050;-40
2023/03/25 06:45:29;;;;;;;21.95;5.28;;;9.00;99.90;;;;;;5071996;28;20131;-48
2023/03/25 06:47:55;;;;;;;30.73;5.38;;;9.10;99.90;;;;;;5069878;28;20904;-42
2023/03/25 06:50:20;;;;;;;25.98;6.82;;;9.10;99.90;;;;;;5072149;28;20526;-46
2023/03/25 06:52:46;;;;;;;25.67;5.18;;;9.10;99.90;;;;;;5069318;28;20546;-48
2023/03/25 06:55:12;;;;;;;26.00;6.30;;;9.20;99.90;;;;;;5078418;28;20116;-49
2023/03/25 06:57:37;;;;;;;24.77;4.60;;;9.20;99.90;;;;;;5078500;28;20040;-42
2023/03/25 07:00:05;;;;;;;24.05;4.97;;;9.20;99.90;;;;;;5077777;28;20054;-46
2023/03/25 07:02:31;;;;;;;20.98;4.93;;;9.20;99.90;;;;;;5077978;28;20040;-50
2023/03/25 07:04:57;;;;;;;22.02;5.05;;;9.20;99.90;;;;;;5078257;28;20105;-49
2023/03/25 07:07:22;;;;;;;31.70;5.50;;;9.20;99.90;;;;;;5076936;28;20155;-49
2023/03/25 07:09:53;;;;;;;24.17;5.07;;;9.30;99.90;;;;;;5064439;28;20432;-44
2023/03/25 07:12:21;;;;;;;26.67;5.05;;;9.30;99.90;;;;;;5077703;28;20494;-50
2023/03/25 07:14:56;;;;;;;22.77;5.53;;;9.30;99.90;;;;;;5076678;28;20520;-45
2023/03/25 07:17:22;;;;;;;24.73;5.65;;;9.20;99.90;;;;;;5077635;28;20113;-45
2023/03/25 07:19:49;;;;;;;27.10;5.22;;;9.10;99.90;;;;;;5075675;28;20051;-45
2023/03/25 07:22:15;;;;;;;22.13;5.30;;;9.00;99.90;;;;;;5077269;28;20110;-47
2023/03/25 07:24:41;;;;;;;24.38;5.65;;;8.90;99.90;;;;;;5078881;28;20478;-42
2023/03/25 07:27:10;;;;;;;28.00;6.32;;;8.90;99.90;;;;;;5078570;28;20125;-47
2023/03/25 07:29:36;;;;;;;25.02;5.85;;;8.70;99.90;;;;;;5077910;28;20093;-46
2023/03/25 07:32:02;;;;;;;28.75;5.07;;;8.70;99.90;;;;;;5076332;28;20424;-43
2023/03/25 07:34:27;;;;;;;22.17;4.25;;;8.60;99.90;;;;;;5057663;28;20043;-43
2023/03/25 07:36:53;;;;;;;24.35;4.68;;;8.60;99.90;;;;;;5069395;28;20040;-42
2023/03/25 07:39:20;;;;;;;19.20;5.15;;;8.60;99.90;;;;;;5074265;28;20040;-38
2023/03/25 07:41:46;;;;;;;23.30;4.68;;;8.50;99.90;;;;;;5076118;28;20040;-52
2023/03/25 07:44:13;;;;;;;20.30;5.03;;;8.40;99.90;;;;;;5077568;28;20036;-48
2023/03/25 07:46:38;;;;;;;30.90;5.13;;;8.40;99.90;;;;;;5077648;28;20101;-45
2023/03/25 07:49:04;;;;;;;23.48;4.80;;;8.40;99.90;;;;;;5076365;28;20046;-39
2023/03/25 07:51:32;;;;;;;25.50;4.72;;;8.40;99.90;;;;;;5063875;28;20036;-47
2023/03/25 07:53:57;;;;;;;21.90;4.75;;;8.30;99.90;;;;;;5040173;28;20407;-45
2023/03/25 07:56:23;;;;;;;25.33;4.95;;;8.40;99.90;;;;;;5060945;28;20044;-45
2023/03/25 07:58:48;;;;;;;26.05;4.70;;;8.50;99.90;;;;;;5076108;28;20036;-45
2023/03/25 08:01:14;;;;;;;22.52;4.57;;;8.60;99.90;;;;;;5074721;28;20086;-40
2023/03/25 08:03:40;;;;;;;31.67;5.90;;;8.80;99.90;;;;;;5058970;28;20111;-49
2023/03/25 08:06:07;;;;;;;27.33;5.07;;;8.80;99.90;;;;;;5058796;28;20479;-47
2023/03/25 08:08:33;;;;;;;20.80;4.85;;;8.90;99.90;;;;;;5073198;28;20040;-39
2023/03/25 08:10:59;;;;;;;36.22;6.85;;;8.90;99.90;;;;;;5061612;28;20075;-46
2023/03/25 08:13:25;;;;;;;24.40;4.90;;;9.00;99.90;;;;;;5057003;28;20036;-39
2023/03/25 08:15:50;;;;;;;26.80;4.55;;;9.00;99.90;;;;;;5069638;28;20038;-46
2023/03/25 08:18:16;;;;;;;32.35;5.80;;;9.00;99.90;;;;;;5055923;28;20040;-46
2023/03/25 08:20:42;;;;;;;20.08;4.97;;;9.00;99.90;;;;;;5067448;28;20047;-40
2023/03/25 08:23:09;;;;;;;23.98;6.25;;;9.00;99.90;;;;;;5056554;28;20048;-44
2023/03/25 08:25:36;;;;;;;21.58;5.53;;;9.10;99.90;;;;;;5072871;28;20444;-39
2023/03/25 08:28:02;;;;;;;24.13;4.22;;;9.20;99.90;;;;;;5066841;28;20115;-45
2023/03/25 08:30:28;;;;;;;26.80;5.28;;;9.40;99.90;;;;;;5071798;28;20036;-41
2023/03/25 08:32:54;;;;;;;24.63;6.35;;;9.70;99.90;;;;;;5065756;28;20044;-46
2023/03/25 08:35:22;;;;;;;30.08;5.25;;;9.90;99.90;;;;;;5069235;28;20044;-42
2023/03/25 08:37:49;;;;;;;20.70;4.45;;;10.20;99.90;;;;;;5065543;28;20051;-42
2023/03/25 08:40:18;;;;;;;26.33;5.47;;;10.40;99.90;;;;;;5075660;28;20075;-45
2023/03/25 08:42:45;;;;;;;19.63;4.88;;;10.40;99.90;;;;;;5071221;28;20074;-46
2023/03/25 08:45:11;;;;;;;24.92;4.88;;;10.40;99.90;;;;;;5072560;28;20051;-46
2023/03/25 08:47:37;;;;;;;22.40;5.03;;;10.40;99.90;;;;;;5076119;28;20050;-42
2023/03/25 08:50:03;;;;;;;22.75;5.32;;;10.20;99.90;;;;;;5075352;28;20043;-43
2023/03/25 08:52:29;;;;;;;23.15;5.10;;;10.10;99.90;;;;;;5073147;28;20828;-39
2023/03/25 08:54:55;;;;;;;19.20;4.38;;;10.10;99.90;;;;;;5069759;28;20040;-48
2023/03/25 08:57:20;;;;;;;24.27;4.82;;;10.10;99.90;;;;;;5070209;28;20040;-48
2023/03/25 08:59:46;;;;;;;24.65;4.47;;;10.10;99.90;;;;;;5068536;28;20105;-49
2023/03/25 09:02:12;;;;;;;21.33;5.25;;;10.30;99.90;;;;;;5068978;28;20048;-42
2023/03/25 09:04:38;;;;;;;20.20;5.13;;;10.60;99.90;;;;;;5064690;28;20090;-46
2023/03/25 09:07:06;;;;;;;20.50;5.72;;;10.60;99.90;;;;;;5074918;28;20087;-50
2023/03/25 09:09:32;;;;;;;21.75;5.18;;;10.70;99.90;;;;;;5062705;28;20044;-51
2023/03/25 09:11:58;;;;;;;19.90;5.40;;;10.60;99.90;;;;;;5060929;28;20043;-45
2023/03/25 09:14:24;;;;;;;21.55;5.05;;;10.70;99.90;;;;;;5071988;28;20045;-52
2023/03/25 09:16:49;;;;;;;22.15;4.80;;;10.70;99.90;;;;;;5055694;28;20045;-38
2023/03/25 09:19:15;;;;;;;19.58;4.35;;;10.60;99.90;;;;;;5064383;28;20073;-48
2023/03/25 09:21:41;;;;;;;14.82;3.92;;;10.50;99.90;;;;;;5061847;28;20084;-48
2023/03/25 09:24:08;;;;;;;18.08;4.47;;;10.30;99.90;;;;;;5068944;28;20072;-39
2023/03/25 09:26:33;;;;;;;23.25;4.03;;;10.20;99.90;;;;;;5045713;28;20168;-50
2023/03/25 09:28:59;;;;;;;22.63;5.50;;;10.30;99.90;;;;;;5071444;28;20581;-41
2023/03/25 09:31:25;;;;;;;24.67;4.93;;;10.50;99.90;;;;;;5071795;28;20056;-44
2023/03/25 09:33:51;;;;;;;20.70;4.28;;;10.60;99.90;;;;;;5069818;28;20059;-50
2023/03/25 09:36:17;;;;;;;24.20;5.25;;;10.70;99.90;;;;;;5059089;28;20053;-42
2023/03/25 09:38:43;;;;;;;18.13;4.72;;;10.60;99.90;;;;;;5059228;28;20529;-39
2023/03/25 09:41:33;;;;;;;17.88;4.30;;;10.70;99.90;;;;;;5066416;28;20044;-38
2023/03/25 09:44:25;;;;;;;20.08;5.80;;;10.70;99.90;;;;;;5075387;28;20451;-47
2023/03/25 09:46:50;;;;;;;23.60;5.20;;;10.60;99.90;;;;;;4999528;28;20168;-41
2023/03/25 09:49:23;;;;;;;18.23;4.28;;;10.60;99.90;;;;;;5012624;28;20065;-48
2023/03/25 09:51:51;;;;;;;19.13;4.10;;;10.60;99.90;;;;;;5012735;28;20081;-46
2023/03/25 09:54:23;;;;;;;19.08;4.15;;;10.60;99.90;;;;;;5021162;28;20053;-41
2023/03/25 09:56:50;;;;;;;21.35;4.50;;;10.70;99.90;;;;;;5033089;28;20151;-39
2023/03/25 09:59:22;;;;;;;20.42;4.18;;;10.80;99.90;;;;;;5024172;28;20072;-41
2023/03/25 10:01:50;;;;;;;18.33;4.53;;;10.80;99.90;;;;;;5030487;28;20045;-47
2023/03/25 10:04:31;;;;;;;17.15;4.25;;;10.70;99.90;;;;;;5014587;28;20071;-48
2023/03/25 10:07:19;;;;;;;21.23;4.43;;;10.80;99.90;;;;;;5034684;28;20052;-48
2023/03/25 10:09:54;;;;;;;21.83;4.78;;;10.80;99.90;;;;;;5006267;28;20523;-43
2023/03/25 10:12:25;;;;;;;19.80;4.50;;;10.70;99.90;;;;;;5031777;28;20096;-48
2023/03/25 10:15:19;;;;;;;19.95;5.65;;;10.70;99.90;;;;;;5035779;28;20443;-46
2023/03/25 10:17:55;;;;;;;;;;;10.70;99.90;;;;;;5035029;28;20053;-44
2023/03/25 10:20:46;;;;;;;17.98;4.40;;;10.70;99.90;;;;;;5035883;28;19972;-45
2023/03/25 10:23:32;;;;;;;24.58;4.53;;;10.70;99.90;;;;;;5043930;28;20358;-40
2023/03/25 10:26:11;;;;;;;17.15;4.05;;;10.70;99.90;;;;;;5073122;28;20399;-47
2023/03/25 10:28:44;;;;;;;20.85;3.83;;;10.70;99.90;;;;;;5076491;28;20459;-39
2023/03/25 10:31:16;;;;;;;18.98;4.35;;;10.70;99.90;;;;;;5064904;28;20079;-48
2023/03/25 10:33:56;;;;;;;22.08;4.00;;;10.80;99.90;;;;;;5063779;28;20702;-45
2023/03/25 10:36:37;;;;;;;16.25;4.35;;;10.80;99.90;;;;;;5078168;28;20063;-45
2023/03/25 10:39:12;;;;;;;20.25;4.32;;;10.90;99.90;;;;;;5063208;28;20055;-44
2023/03/25 10:41:42;;;;;;;19.77;4.53;;;10.90;99.90;;;;;;5072735;28;20186;-50
2023/03/25 10:44:11;;;;;;;19.50;4.40;;;11.00;99.90;;;;;;5071609;28;20048;-46
2023/03/25 10:46:47;;;;;;;20.83;4.43;;;11.10;99.90;;;;;;5065807;28;20050;-40
2023/03/25 10:49:17;;;;;;;20.02;4.43;;;11.20;99.90;;;;;;5067529;28;20155;-48
2023/03/25 10:51:44;;;;;;;19.63;4.47;;;11.30;99.90;;;;;;5066999;28;20289;-49
2023/03/25 10:54:12;;;;;;;21.00;4.53;;;11.60;99.90;;;;;;5064619;28;20057;-50
2023/03/25 10:56:44;;;;;;;25.52;4.35;;;11.70;99.90;;;;;;5067281;28;20097;-41
2023/03/25 10:59:26;;;;;;;19.05;4.95;;;11.90;99.90;;;;;;5069278;28;20398;-50
2023/03/25 11:01:53;;;;;;;22.95;4.95;;;12.10;99.90;;;;;;5060398;28;20554;-46
2023/03/25 11:04:20;;;;;;;20.85;4.35;;;12.30;99.90;;;;;;5063166;28;20136;-42
2023/03/25 11:06:54;;;;;;;20.52;4.65;;;12.30;99.90;;;;;;5056337;28;20045;-50
2023/03/25 11:09:25;;;;;;;16.15;4.13;;;12.30;99.90;;;;;;5073500;28;20410;-39
2023/03/25 11:11:54;;;;;;;17.30;3.92;;;12.50;99.90;;;;;;5064034;28;20050;-48
2023/03/25 11:14:26;;;;;;;13.50;3.85;;;12.80;99.90;;;;;;5074225;28;20056;-39
2023/03/25 11:17:01;;;;;;;15.50;4.65;;;13.00;99.90;;;;;;5064863;28;20055;-43
2023/03/25 11:19:38;;;;;;;15.02;3.47;;;13.00;99.90;;;;;;5062640;28;20155;-47
2023/03/25 11:22:16;;;;;;;19.02;4.65;;;12.90;99.90;;;;;;5077054;28;20599;-49
2023/03/25 11:24:46;;;;;;;14.48;3.40;;;12.80;99.90;;;;;;5058073;28;20406;-45
2023/03/25 11:27:27;;;;;;;19.95;4.22;;;12.70;99.90;;;;;;5062339;28;20116;-46
2023/03/25 11:30:05;;;;;;;18.13;4.30;;;12.90;99.90;;;;;;5077323;28;20522;-44
2023/03/25 11:32:34;;;;;;;15.75;3.75;;;12.80;99.90;;;;;;5076931;28;20554;-42
2023/03/25 11:35:27;;;;;;;15.88;3.75;;;12.70;99.90;;;;;;5077651;28;20048;-48
2023/03/25 11:38:07;;;;;;;22.95;6.15;;;12.80;99.90;;;;;;5068661;28;20060;-50
2023/03/25 11:40:33;;;;;;;16.13;4.35;;;12.90;99.90;;;;;;5069259;28;20057;-39
2023/03/25 11:43:00;;;;;;;14.25;3.97;;;12.90;99.90;;;;;;5071356;28;20147;-48
2023/03/25 11:45:44;;;;;;;13.13;3.95;;;12.90;99.90;;;;;;5075425;28;20060;-50
2023/03/25 11:48:19;;;;;;;20.48;5.13;;;12.90;99.90;;;;;;5076776;28;20043;-50
2023/03/25 11:50:57;;;;;;;16.73;4.65;;;12.80;99.90;;;;;;5065027;28;20532;-41
2023/03/25 11:53:26;;;;;;;19.17;4.57;;;12.80;99.90;;;;;;5062824;28;20058;-48
2023/03/25 11:55:58;;;;;;;14.35;4.18;;;12.80;99.90;;;;;;5076983;28;20569;-42
2023/03/25 11:58:31;;;;;;;15.85;4.28;;;12.60;99.90;;;;;;5073400;28;20154;-46
2023/03/25 12:01:26;;;;;;;16.13;4.25;;;12.60;99.90;;;;;;5068504;28;20047;-49
2023/03/25 12:04:18;;;;;;;17.75;4.40;;;12.60;99.90;;;;;;5045459;28;20608;-45
2023/03/25 12:07:07;;;;;;;19.58;4.15;;;12.50;99.90;;;;;;5045048;28;20623;-48
2023/03/25 12:09:33;;;;;;;18.00;3.75;;;12.50;99.90;;;;;;5052628;28;20227;-46
2023/03/25 12:12:20;;;;;;;14.45;4.15;;;12.40;99.90;;;;;;5053288;28;20103;-44
2023/03/25 12:15:10;;;;;;;16.90;3.95;;;12.40;99.90;;;;;;5053091;28;20267;-47
2023/03/25 12:17:42;;;;;;;17.38;4.28;;;12.50;99.90;;;;;;5053286;28;20052;-47
2023/03/25 12:20:32;;;;;;;14.07;3.83;;;12.70;99.90;;;;;;5053019;28;20059;-41
2023/03/25 12:23:27;;;;;;;19.33;4.53;;;12.90;99.90;;;;;;5051589;28;20056;-47
2023/03/25 12:26:15;;;;;;;14.25;3.30;;;13.00;99.90;;;;;;5052824;28;20094;-48
2023/03/25 12:29:07;;;;;;;17.48;3.95;;;12.80;99.90;;;;;;5052528;28;20060;-48
2023/03/25 12:32:10;;;;;;;18.30;4.57;;;12.60;99.90;;;;;;5050997;28;20048;-39
2023/03/25 12:34:50;;;;;;;16.73;3.67;;;12.50;99.90;;;;;;4993404;28;20142;-51
2023/03/25 12:37:27;;;;;;;15.18;3.53;;;12.40;99.90;;;;;;4993828;28;20053;-49
2023/03/25 12:39:59;;;;;;;16.77;3.55;;;12.30;99.90;;;;;;4976507;28;20050;-39
2023/03/25 12:43:01;;;;;;;16.70;3.75;;;12.20;99.90;;;;;;5002565;28;20056;-44
2023/03/25 12:46:05;;;;;;;18.58;4.15;;;12.10;99.90;;;;;;4995924;28;20640;-39
2023/03/25 12:48:45;;;;;;;18.15;3.58;;;12.00;99.90;;;;;;5013241;28;20784;-48
2023/03/25 12:51:16;;;;;;;14.88;3.60;;;12.10;99.90;;;;;;5013324;28;20522;-49
2023/03/25 12:53:51;;;;;;;17.25;4.30;;;12.20;99.90;;;;;;5012980;28;20049;-41
2023/03/25 12:56:37;;;;;;;17.23;3.95;;;12.20;99.90;;;;;;5012091;28;20052;-46
2023/03/25 12:59:25;;;;;;;15.23;4.15;;;12.20;99.90;;;;;;5013165;28;20668;-42
2023/03/25 13:02:09;;;;;;;18.55;4.63;;;12.10;99.90;;;;;;4983313;28;20053;-39
2023/03/25 13:05:03;;;;;;;13.18;3.17;;;12.00;99.90;;;;;;4998651;28;20085;-42
2023/03/25 13:07:42;;;;;;;12.68;3.72;;;11.80;99.90;;;;;;5006972;28;20054;-46